createdAt,value
2019-04-07T00:02:27.444Z,18.40
2019-04-07T00:05:10.102Z,18.65
2019-04-07T00:07:32.271Z,18.92
2019-04-07T00:10:08.391Z,19.02
2019-04-07T00:12:39.529Z,18.62
2019-04-07T00:15:11.331Z,18.67
2019-04-07T00:17:43.187Z,19.02
2019-04-07T00:20:15.039Z,18.92
2019-04-07T00:22:46.703Z,18.27
2019-04-07T00:25:18.459Z,20.17
2019-04-07T00:27:50.258Z,19.23
2019-04-07T00:30:22.384Z,18.77
2019-04-07T00:32:53.621Z,19.85
2019-04-07T00:35:30.503Z,20.17
2019-04-07T00:37:58.296Z,19.12
2019-04-07T00:40:29.627Z,19.70
2019-04-07T00:43:01.598Z,19.05
2019-04-07T00:45:33.737Z,19.15
2019-04-07T00:48:05.729Z,19.15
2019-04-07T00:50:37.273Z,18.80
2019-04-07T00:53:08.864Z,18.90
2019-04-07T00:55:40.801Z,18.95
2019-04-07T00:58:12.562Z,18.57
2019-04-07T01:00:44.569Z,18.87
2019-04-07T01:03:16.059Z,19.20
2019-04-07T01:05:47.940Z,19.23
2019-04-07T01:08:19.057Z,18.77
2019-04-07T01:10:50.885Z,19.48
2019-04-07T01:13:23.306Z,19.32
2019-04-07T01:15:54.940Z,19.15
2019-04-07T01:18:26.988Z,19.47
2019-04-07T01:20:59.520Z,19.20
2019-04-07T01:23:31.433Z,19.12
2019-04-07T01:26:03.208Z,19.12
2019-04-07T01:28:35.326Z,19.15
2019-04-07T01:31:07.209Z,19.70
2019-04-07T01:33:38.920Z,20.30
2019-04-07T01:36:11.210Z,19.95
2019-04-07T01:38:43.267Z,19.80
2019-04-07T01:41:19.511Z,19.25
2019-04-07T01:44:07.966Z,20.57
2019-04-07T01:46:48.309Z,19.52
2019-04-07T01:49:40.151Z,19.15
2019-04-07T01:52:13.050Z,19.57
2019-04-07T01:55:04.817Z,19.87
2019-04-07T01:57:46.550Z,19.95
2019-04-07T02:00:22.670Z,20.73
2019-04-07T02:03:02.132Z,19.60
2019-04-07T02:05:44.296Z,19.12
2019-04-07T02:08:33.922Z,19.75
2019-04-07T02:11:07.250Z,19.67
2019-04-07T02:13:46.038Z,19.67
2019-04-07T02:16:20.385Z,19.32
2019-04-07T02:18:55.999Z,19.85
2019-04-07T02:21:47.017Z,19.45
2019-04-07T02:24:20.311Z,19.62
2019-04-07T02:26:56.580Z,20.52
2019-04-07T02:29:44.664Z,19.92
2019-04-07T02:32:34.446Z,20.65
2019-04-07T02:35:28.038Z,19.62
2019-04-07T02:38:02.038Z,20.23
2019-04-07T02:40:51.366Z,20.23
2019-04-07T02:43:24.366Z,20.20
2019-04-07T02:46:04.230Z,19.77
2019-04-07T02:48:52.634Z,20.40
2019-04-07T02:51:34.219Z,20.40
2019-04-07T02:54:24.601Z,19.77
2019-04-07T02:56:57.677Z,20.57
2019-04-07T02:59:42.493Z,20.45
2019-04-07T03:02:14.636Z,20.35
2019-04-07T03:04:56.780Z,20.55
2019-04-07T03:07:47.408Z,19.95
2019-04-07T03:10:21.562Z,20.72
2019-04-07T03:13:13.072Z,20.27
2019-04-07T03:15:46.219Z,20.48
2019-04-07T03:18:24.280Z,20.55
2019-04-07T03:20:59.415Z,19.75
2019-04-07T03:23:44.370Z,20.60
2019-04-07T03:26:33.683Z,20.40
2019-04-07T03:29:09.774Z,20.10
2019-04-07T03:31:59.980Z,20.97
2019-04-07T03:34:36.392Z,20.02
2019-04-07T03:37:35.325Z,19.05
2019-04-07T03:40:06.471Z,21.23
2019-04-07T03:42:56.039Z,21.02
2019-04-07T03:45:32.546Z,20.08
2019-04-07T03:48:21.171Z,21.12
2019-04-07T03:50:57.080Z,20.35
2019-04-07T03:53:30.488Z,20.35
2019-04-07T03:56:10.157Z,17.75
2019-04-07T03:58:55.804Z,20.30
2019-04-07T04:01:48.426Z,20.48
2019-04-07T04:04:21.343Z,20.70
2019-04-07T04:06:58.701Z,21.10
2019-04-07T04:09:49.089Z,20.95
2019-04-07T04:12:25.670Z,20.95
2019-04-07T04:15:00.235Z,19.98
2019-04-07T04:17:32.606Z,19.90
2019-04-07T04:20:08.622Z,19.70
2019-04-07T04:22:40.270Z,18.93
2019-04-07T04:25:11.396Z,19.32
2019-04-07T04:27:43.464Z,19.57
2019-04-07T04:30:15.350Z,19.75
2019-04-07T04:32:47.719Z,20.75
2019-04-07T04:35:19.096Z,20.45
2019-04-07T04:37:53.406Z,21.02
2019-04-07T04:40:24.329Z,21.37
2019-04-07T04:42:55.676Z,21.85
2019-04-07T04:45:27.565Z,21.95
2019-04-07T04:48:00.102Z,22.25
2019-04-07T04:50:31.978Z,22.75
2019-04-07T04:53:04.026Z,20.77
2019-04-07T04:55:35.798Z,21.45
2019-04-07T04:58:07.357Z,19.87
2019-04-07T05:00:40.431Z,20.10
2019-04-07T05:03:12.713Z,19.20
2019-04-07T05:05:44.579Z,20.12
2019-04-07T05:08:16.195Z,19.77
2019-04-07T05:10:48.274Z,20.60
2019-04-07T05:13:19.887Z,20.60
2019-04-07T05:15:51.811Z,21.42
2019-04-07T05:18:22.944Z,20.45
2019-04-07T05:20:54.509Z,20.55
2019-04-07T05:23:25.689Z,19.67
2019-04-07T05:25:59.194Z,17.32
2019-04-07T05:28:33.246Z,18.25
2019-04-07T05:31:04.411Z,18.05
2019-04-07T05:33:35.807Z,18.05
2019-04-07T05:36:08.111Z,16.73
2019-04-07T05:38:41.008Z,16.97
2019-04-07T05:41:12.971Z,16.70
2019-04-07T05:43:45.882Z,15.75
2019-04-07T05:46:17.670Z,15.80
2019-04-07T05:48:50.589Z,14.70
2019-04-07T05:51:22.885Z,14.35
2019-04-07T05:53:57.047Z,13.62
2019-04-07T05:56:28.547Z,15.08
2019-04-07T05:59:00.574Z,14.13
2019-04-07T06:01:32.197Z,14.50
2019-04-07T06:04:03.769Z,13.08
2019-04-07T06:06:35.191Z,12.98
2019-04-07T06:09:08.019Z,12.23
2019-04-07T06:11:40.030Z,11.75
2019-04-07T06:14:14.316Z,11.80
2019-04-07T06:16:45.165Z,11.83
2019-04-07T06:19:17.055Z,12.00
2019-04-07T06:21:48.890Z,11.83
2019-04-07T06:24:22.324Z,10.77
2019-04-07T06:26:54.452Z,10.95
2019-04-07T06:29:26.452Z,10.70
2019-04-07T06:32:02.431Z,11.43
2019-04-07T06:34:31.536Z,13.25
2019-04-07T06:37:03.580Z,10.18
2019-04-07T06:39:35.201Z,10.03
2019-04-07T06:42:07.490Z,10.40
2019-04-07T06:44:38.902Z,10.60
2019-04-07T06:47:11.897Z,11.05
2019-04-07T06:50:05.353Z,11.30
2019-04-07T06:52:43.541Z,10.80
2019-04-07T06:55:29.763Z,10.95
2019-04-07T06:58:06.112Z,10.63
2019-04-07T07:00:57.555Z,10.43
2019-04-07T07:03:47.625Z,9.25
2019-04-07T07:06:26.813Z,9.43
2019-04-07T07:09:06.245Z,9.90
2019-04-07T07:11:48.652Z,9.28
2019-04-07T07:14:42.627Z,8.73
2019-04-07T07:17:18.362Z,9.40
2019-04-07T07:20:06.504Z,9.25
2019-04-07T07:22:47.841Z,9.00
2019-04-07T07:25:19.229Z,8.65
2019-04-07T07:27:51.165Z,8.10
2019-04-07T07:30:23.239Z,7.80
2019-04-07T07:32:55.279Z,8.53
2019-04-07T07:35:27.175Z,8.70
2019-04-07T07:37:59.779Z,7.55
2019-04-07T07:40:33.790Z,7.30
2019-04-07T07:43:04.505Z,7.70
2019-04-07T07:45:36.192Z,7.08
2019-04-07T07:48:08.122Z,7.50
2019-04-07T07:50:40.444Z,6.60
2019-04-07T07:53:12.590Z,6.53
2019-04-07T07:55:44.372Z,6.12
2019-04-07T07:58:16.078Z,6.55
2019-04-07T08:00:47.576Z,6.85
2019-04-07T08:03:22.485Z,6.47
2019-04-07T08:05:53.310Z,6.60
2019-04-07T08:08:25.351Z,6.60
2019-04-07T08:10:59.851Z,6.87
2019-04-07T08:13:32.471Z,6.50
2019-04-07T08:16:05.172Z,6.95
2019-04-07T08:18:38.732Z,6.50
2019-04-07T08:21:12.294Z,6.28
2019-04-07T08:23:45.287Z,6.35
2019-04-07T08:26:16.374Z,6.37
2019-04-07T08:28:48.203Z,6.45
2019-04-07T08:31:21.461Z,6.05
2019-04-07T08:33:52.793Z,7.67
2019-04-07T08:36:24.825Z,6.97
2019-04-07T08:38:57.172Z,6.50
2019-04-07T08:41:28.868Z,6.90
2019-04-07T08:44:00.731Z,6.63
2019-04-07T08:46:38.616Z,7.58
2019-04-07T08:49:06.566Z,6.72
2019-04-07T08:51:39.490Z,7.17
2019-04-07T08:54:11.729Z,7.00
2019-04-07T08:56:43.823Z,6.72
2019-04-07T08:59:17.148Z,7.28
2019-04-07T09:01:52.278Z,7.15
2019-04-07T09:04:21.649Z,7.10
2019-04-07T09:06:53.746Z,8.10
2019-04-07T09:09:32.528Z,7.33
2019-04-07T09:11:58.182Z,7.55
2019-04-07T09:14:29.718Z,7.45
2019-04-07T09:17:30.026Z,7.22
2019-04-07T09:19:59.542Z,7.55
2019-04-07T09:22:51.553Z,6.97
2019-04-07T09:25:22.652Z,7.92
2019-04-07T09:28:12.270Z,6.80
2019-04-07T09:30:48.367Z,6.55
2019-04-07T09:33:38.741Z,7.10
2019-04-07T09:36:14.819Z,7.25
2019-04-07T09:38:57.105Z,6.90
2019-04-07T09:41:32.182Z,6.92
2019-04-07T09:44:05.455Z,7.05
2019-04-07T09:46:54.639Z,7.35
2019-04-07T09:49:33.805Z,7.05
2019-04-07T09:52:10.222Z,7.60
2019-04-07T09:54:51.814Z,7.08
2019-04-07T09:57:22.030Z,6.70
2019-04-07T09:59:55.694Z,7.12
2019-04-07T10:02:35.775Z,7.40
2019-04-07T10:05:21.413Z,6.87
2019-04-07T10:08:00.431Z,7.60
2019-04-07T10:10:43.636Z,7.17
2019-04-07T10:13:25.858Z,7.53
2019-04-07T10:16:02.364Z,7.22
2019-04-07T10:18:50.868Z,7.90
2019-04-07T10:21:41.763Z,7.37
2019-04-07T10:24:20.784Z,7.15
2019-04-07T10:27:00.080Z,6.92
2019-04-07T10:29:34.047Z,7.28
2019-04-07T10:32:07.826Z,7.00
2019-04-07T10:34:40.868Z,7.33
2019-04-07T10:37:19.949Z,7.10
2019-04-07T10:40:02.806Z,6.97
2019-04-07T10:42:54.713Z,6.37
2019-04-07T10:45:41.743Z,7.28
2019-04-07T10:48:24.900Z,7.03
2019-04-07T10:51:01.203Z,7.17
2019-04-07T10:53:38.274Z,6.83
2019-04-07T10:56:28.866Z,6.80
2019-04-07T10:59:05.570Z,6.28
2019-04-07T11:01:47.765Z,6.28
2019-04-07T11:04:20.844Z,6.53
2019-04-07T11:06:59.399Z,6.72
2019-04-07T11:09:35.405Z,7.20
2019-04-07T11:12:08.826Z,7.10
2019-04-07T11:14:48.912Z,6.92
2019-04-07T11:17:28.218Z,11.15
2019-04-07T11:20:08.094Z,7.65
2019-04-07T11:22:57.655Z,9.20
2019-04-07T11:25:47.787Z,9.50
2019-04-07T11:28:22.590Z,7.10
2019-04-07T11:31:04.351Z,8.23
2019-04-07T11:33:44.995Z,8.28
2019-04-07T11:36:24.467Z,7.08
2019-04-07T11:38:58.507Z,11.80
2019-04-07T11:41:41.309Z,30.73
2019-04-07T11:44:19.234Z,12.98
2019-04-07T11:47:02.104Z,10.23
2019-04-07T11:49:41.411Z,9.53
2019-04-07T11:52:29.039Z,8.93
2019-04-07T11:55:02.077Z,7.53
2019-04-07T11:57:35.393Z,7.65
2019-04-07T12:00:14.084Z,6.65
2019-04-07T12:02:53.656Z,7.50
2019-04-07T12:05:36.641Z,6.55
2019-04-07T12:08:31.137Z,6.60
2019-04-07T12:11:05.334Z,6.85
2019-04-07T12:13:46.736Z,6.90
2019-04-07T12:16:20.232Z,7.25
2019-04-07T12:18:53.726Z,8.10
2019-04-07T12:21:37.551Z,6.83
2019-04-07T12:24:10.674Z,6.53
2019-04-07T12:26:53.769Z,6.60
2019-04-07T12:29:42.831Z,6.62
2019-04-07T12:32:19.126Z,7.90
2019-04-07T12:34:58.044Z,7.17
2019-04-07T12:37:39.212Z,7.40
2019-04-07T12:40:15.194Z,6.90
2019-04-07T12:42:54.496Z,7.03
2019-04-07T12:45:30.875Z,9.07
2019-04-07T12:48:06.317Z,7.00
2019-04-07T12:50:42.718Z,8.25
2019-04-07T12:53:16.386Z,23.32
2019-04-07T12:56:06.986Z,6.80
2019-04-07T12:58:46.055Z,8.33
2019-04-07T13:01:23.891Z,9.53
2019-04-07T13:04:00.260Z,7.10
2019-04-07T13:06:33.306Z,6.90
2019-04-07T13:09:13.885Z,8.05
2019-04-07T13:11:49.730Z,7.70
2019-04-07T13:14:40.004Z,7.67
2019-04-07T13:17:13.717Z,8.45
2019-04-07T13:19:50.551Z,11.08
2019-04-07T13:22:25.016Z,9.80
2019-04-07T13:25:09.729Z,8.90
2019-04-07T13:27:44.407Z,19.75
2019-04-07T13:30:18.158Z,7.00
2019-04-07T13:33:06.537Z,37.13
2019-04-07T13:35:41.220Z,20.57
2019-04-07T13:38:32.873Z,23.03
2019-04-07T13:41:05.774Z,9.18
2019-04-07T13:43:48.654Z,8.63
2019-04-07T13:46:27.669Z,11.17
2019-04-07T13:49:00.307Z,8.37
2019-04-07T13:51:49.288Z,7.53
2019-04-07T13:54:39.340Z,33.70
2019-04-07T13:57:26.000Z,33.00
2019-04-07T14:00:16.252Z,21.48
2019-04-07T14:02:50.161Z,15.98
2019-04-07T14:05:40.980Z,8.63
2019-04-07T14:08:17.128Z,8.25
2019-04-07T14:11:02.490Z,7.27
2019-04-07T14:13:42.653Z,7.22
2019-04-07T14:16:16.006Z,7.10
2019-04-07T14:18:56.937Z,9.25
2019-04-07T14:21:44.028Z,93.25
2019-04-07T14:24:21.121Z,8.15
2019-04-07T14:27:05.413Z,8.20
2019-04-07T14:29:38.366Z,12.82
2019-04-07T14:32:28.305Z,8.03
2019-04-07T14:35:02.214Z,8.85
2019-04-07T14:37:52.639Z,9.40
2019-04-07T14:40:29.154Z,10.58
2019-04-07T14:43:08.293Z,7.75
2019-04-07T14:45:51.530Z,9.38
2019-04-07T14:48:40.197Z,7.12
2019-04-07T14:51:17.625Z,6.83
2019-04-07T14:54:06.816Z,7.00
2019-04-07T14:56:48.889Z,6.90
2019-04-07T14:59:34.975Z,7.78
2019-04-07T15:02:07.306Z,7.42
2019-04-07T15:04:40.770Z,7.47
2019-04-07T15:07:22.667Z,8.60
2019-04-07T15:09:56.510Z,9.38
2019-04-07T15:12:32.108Z,9.33
2019-04-07T15:15:08.426Z,7.50
2019-04-07T15:17:37.104Z,7.90
2019-04-07T15:20:11.645Z,7.53
2019-04-07T15:22:44.713Z,8.05
2019-04-07T15:25:18.380Z,8.00
2019-04-07T15:27:49.978Z,9.90
2019-04-07T15:30:22.189Z,7.72
2019-04-07T15:32:57.859Z,7.30
2019-04-07T15:35:26.511Z,8.10
2019-04-07T15:37:57.756Z,7.42
2019-04-07T15:40:30.835Z,8.43
2019-04-07T15:43:05.691Z,8.20
2019-04-07T15:45:36.522Z,7.75
2019-04-07T15:48:08.286Z,9.00
2019-04-07T15:50:40.047Z,9.90
2019-04-07T15:53:13.436Z,11.08
2019-04-07T15:55:52.651Z,9.65
2019-04-07T15:58:18.106Z,8.45
2019-04-07T16:00:49.344Z,7.87
2019-04-07T16:03:21.157Z,8.05
2019-04-07T16:05:53.444Z,8.28
2019-04-07T16:08:27.243Z,8.07
2019-04-07T16:10:57.700Z,8.30
2019-04-07T16:13:29.296Z,8.05
2019-04-07T16:16:05.781Z,9.00
2019-04-07T16:18:41.852Z,8.50
2019-04-07T16:21:14.253Z,9.05
2019-04-07T16:23:49.052Z,9.00
2019-04-07T16:26:18.355Z,8.50
2019-04-07T16:28:50.660Z,9.88
2019-04-07T16:31:24.218Z,10.33
2019-04-07T16:33:54.979Z,10.80
2019-04-07T16:36:26.696Z,13.60
2019-04-07T16:39:00.430Z,14.98
2019-04-07T16:41:31.589Z,34.70
2019-04-07T16:44:04.857Z,33.60
2019-04-07T16:46:35.714Z,21.35
2019-04-07T16:49:07.807Z,19.90
2019-04-07T16:51:40.458Z,20.80
2019-04-07T16:54:12.062Z,23.30
2019-04-07T16:56:44.505Z,23.77
2019-04-07T16:59:16.783Z,13.95
2019-04-07T17:01:47.916Z,12.85
2019-04-07T17:04:20.137Z,12.13
2019-04-07T17:07:00.201Z,14.00
2019-04-07T17:09:26.478Z,15.75
2019-04-07T17:11:57.856Z,13.53
2019-04-07T17:14:32.099Z,15.93
2019-04-07T17:17:03.580Z,15.32
2019-04-07T17:19:35.847Z,14.80
2019-04-07T17:22:11.828Z,15.50
2019-04-07T17:24:42.680Z,15.88
2019-04-07T17:27:15.056Z,21.68
2019-04-07T17:29:49.108Z,22.75
2019-04-07T17:32:20.005Z,22.13
2019-04-07T17:34:51.905Z,20.77
2019-04-07T17:37:25.899Z,24.63
2019-04-07T17:39:58.030Z,29.00
2019-04-07T17:42:30.249Z,31.37
2019-04-07T17:45:03.490Z,27.10
2019-04-07T17:47:48.728Z,43.78
2019-04-07T17:50:33.766Z,26.00
2019-04-07T17:53:10.178Z,38.30
2019-04-07T17:55:46.231Z,36.55
2019-04-07T17:58:38.145Z,37.05
2019-04-07T18:01:10.349Z,36.17
2019-04-07T18:03:49.686Z,23.42
2019-04-07T18:06:32.239Z,30.48
2019-04-07T18:09:12.214Z,27.20
2019-04-07T18:12:06.758Z,26.95
2019-04-07T18:14:39.318Z,29.65
2019-04-07T18:17:16.172Z,29.63
2019-04-07T18:19:49.399Z,23.22
2019-04-07T18:22:39.064Z,28.38
2019-04-07T18:25:32.227Z,31.37
2019-04-07T18:28:03.174Z,25.43
2019-04-07T18:30:36.857Z,33.35
2019-04-07T18:33:26.968Z,33.08
2019-04-07T18:36:06.733Z,28.47
2019-04-07T18:38:49.588Z,26.65
2019-04-07T18:41:32.458Z,23.07
2019-04-07T18:44:08.975Z,21.02
2019-04-07T18:46:58.593Z,23.98
2019-04-07T18:49:35.388Z,18.15
2019-04-07T18:52:15.969Z,17.40
2019-04-07T18:55:00.084Z,17.57
2019-04-07T18:57:40.077Z,18.90
2019-04-07T19:00:14.777Z,19.07
2019-04-07T19:02:52.497Z,17.30
2019-04-07T19:05:42.582Z,18.73
2019-04-07T19:08:25.045Z,18.70
2019-04-07T19:11:14.296Z,20.75
2019-04-07T19:14:01.837Z,20.23
2019-04-07T19:16:40.520Z,23.47
2019-04-07T19:19:13.546Z,22.20
2019-04-07T19:22:04.375Z,23.05
2019-04-07T19:24:53.795Z,21.15
2019-04-07T19:27:38.814Z,19.55
2019-04-07T19:30:14.463Z,18.50
2019-04-07T19:32:58.917Z,18.27
2019-04-07T19:35:36.419Z,17.30
2019-04-07T19:38:12.497Z,17.03
2019-04-07T19:41:02.749Z,16.25
2019-04-07T19:43:35.836Z,16.05
2019-04-07T19:46:09.182Z,15.35
2019-04-07T19:48:57.603Z,16.75
2019-04-07T19:51:30.675Z,17.45
2019-04-07T19:54:15.383Z,16.97
2019-04-07T19:56:59.295Z,16.17
2019-04-07T19:59:41.609Z,16.62
2019-04-07T20:02:34.926Z,17.52
2019-04-07T20:05:08.245Z,16.13
2019-04-07T20:07:41.992Z,16.87
2019-04-07T20:10:25.710Z,16.48
2019-04-07T20:13:02.617Z,16.97
2019-04-07T20:15:39.043Z,17.17
2019-04-07T20:18:10.445Z,16.80
2019-04-07T20:20:58.861Z,17.42
2019-04-07T20:23:34.522Z,17.10
2019-04-07T20:26:10.753Z,17.95
2019-04-07T20:28:52.564Z,19.20
2019-04-07T20:31:37.413Z,18.50
2019-04-07T20:34:11.818Z,18.30
2019-04-07T20:36:57.795Z,18.37
2019-04-07T20:39:35.325Z,16.67
2019-04-07T20:42:08.726Z,13.38
2019-04-07T20:44:45.908Z,15.10
2019-04-07T20:47:19.695Z,14.43
2019-04-07T20:49:59.997Z,14.65
2019-04-07T20:52:34.118Z,14.37
2019-04-07T20:55:21.242Z,14.58
2019-04-07T20:58:13.030Z,14.05
2019-04-07T21:00:37.287Z,14.87
2019-04-07T21:03:27.678Z,15.90
2019-04-07T21:06:07.132Z,17.48
2019-04-07T21:08:40.079Z,17.17
2019-04-07T21:11:31.361Z,17.52
2019-04-07T21:14:10.057Z,18.87
2019-04-07T21:16:50.927Z,19.50
2019-04-07T21:19:25.589Z,18.45
2019-04-07T21:21:58.555Z,19.03
2019-04-07T21:24:31.541Z,17.30
2019-04-07T21:27:22.227Z,16.97
2019-04-07T21:29:58.946Z,16.50
2019-04-07T21:32:41.317Z,17.25
2019-04-07T21:35:23.318Z,17.00
2019-04-07T21:38:12.441Z,16.50
2019-04-07T21:40:55.507Z,17.30
2019-04-07T21:43:37.804Z,16.65
2019-04-07T21:46:13.773Z,16.60
2019-04-07T21:48:47.469Z,17.48
2019-04-07T21:51:20.278Z,16.35
2019-04-07T21:54:11.859Z,15.63
2019-04-07T21:56:46.077Z,16.02
2019-04-07T21:59:31.139Z,14.73
2019-04-07T22:02:02.807Z,14.25
2019-04-07T22:04:44.498Z,13.60
2019-04-07T22:07:23.730Z,12.95
2019-04-07T22:09:56.945Z,12.88
2019-04-07T22:12:30.346Z,12.33
2019-04-07T22:15:02.418Z,11.68
2019-04-07T22:17:36.762Z,11.88
2019-04-07T22:20:10.940Z,11.40
2019-04-07T22:22:42.996Z,11.33
2019-04-07T22:25:18.496Z,11.00
2019-04-07T22:27:50.430Z,11.55
2019-04-07T22:30:22.881Z,10.82
2019-04-07T22:32:54.189Z,10.88
2019-04-07T22:35:25.457Z,10.90
2019-04-07T22:37:56.957Z,10.13
2019-04-07T22:40:32.191Z,10.32
2019-04-07T22:43:01.676Z,10.47
2019-04-07T22:45:33.223Z,10.93
2019-04-07T22:48:08.115Z,10.93
2019-04-07T22:50:38.810Z,10.55
2019-04-07T22:53:11.458Z,10.70
2019-04-07T22:55:42.922Z,10.17
2019-04-07T22:58:14.568Z,9.90
2019-04-07T23:00:46.627Z,10.15
2019-04-07T23:03:17.776Z,10.10
2019-04-07T23:05:49.236Z,10.60
2019-04-07T23:08:20.871Z,10.30
2019-04-07T23:10:52.133Z,9.53
2019-04-07T23:13:23.845Z,10.68
2019-04-07T23:16:07.321Z,10.13
2019-04-07T23:18:27.929Z,10.32
2019-04-07T23:20:59.926Z,9.88
2019-04-07T23:23:32.304Z,10.18
2019-04-07T23:26:03.500Z,10.65
2019-04-07T23:28:35.162Z,10.35
2019-04-07T23:31:07.459Z,11.00
2019-04-07T23:33:39.088Z,11.28
2019-04-07T23:36:11.588Z,10.40
2019-04-07T23:38:44.030Z,11.30
2019-04-07T23:41:16.004Z,11.50
2019-04-07T23:43:47.759Z,10.75
2019-04-07T23:46:24.173Z,10.65
2019-04-07T23:48:51.903Z,10.45
2019-04-07T23:51:23.536Z,10.00
2019-04-07T23:54:11.277Z,10.35
2019-04-07T23:56:43.656Z,11.45
2019-04-07T23:59:15.094Z,10.60
